createdAt,value
2019-02-21T00:00:23.943Z,50.43
2019-02-21T00:05:12.128Z,45.43
2019-02-21T00:10:08.370Z,46.93
2019-02-21T00:15:02.932Z,48.30
2019-02-21T00:19:57.532Z,50.83
2019-02-21T00:24:52.196Z,50.70
2019-02-21T00:29:46.792Z,49.10
2019-02-21T00:34:41.365Z,49.27
2019-02-21T00:39:35.961Z,50.63
2019-02-21T00:44:30.567Z,45.50
2019-02-21T00:49:25.199Z,47.63
2019-02-21T00:54:19.858Z,45.73
2019-02-21T00:59:14.537Z,48.90
2019-02-21T01:04:09.122Z,47.17
2019-02-21T01:09:04.801Z,52.70
2019-02-21T01:13:59.361Z,50.47
2019-02-21T01:18:53.974Z,53.30
2019-02-21T01:23:48.535Z,55.23
2019-02-21T01:28:43.210Z,50.10
2019-02-21T01:33:37.863Z,55.07
2019-02-21T01:38:32.492Z,58.70
2019-02-21T01:43:27.033Z,55.37
2019-02-21T01:48:21.642Z,56.43
2019-02-21T01:53:16.281Z,54.87
2019-02-21T01:58:11.127Z,50.93
2019-02-21T02:03:05.848Z,50.47
2019-02-21T02:08:00.444Z,53.37
2019-02-21T02:12:55.045Z,49.57
2019-02-21T02:17:49.625Z,57.87
2019-02-21T02:23:03.545Z,61.03
2019-02-21T02:27:58.149Z,60.30
2019-02-21T02:32:52.738Z,61.57
2019-02-21T02:37:47.347Z,60.00
2019-02-21T02:42:41.907Z,61.87
2019-02-21T02:47:36.513Z,56.83
2019-02-21T02:52:31.099Z,56.90
2019-02-21T02:57:25.703Z,57.63
2019-02-21T03:02:20.270Z,59.50
2019-02-21T03:07:14.875Z,51.43
2019-02-21T03:12:09.446Z,52.60
2019-02-21T03:17:04.119Z,59.30
2019-02-21T03:21:58.682Z,61.83
2019-02-21T03:26:53.296Z,67.97
2019-02-21T03:31:54.767Z,59.07
2019-02-21T03:36:44.205Z,60.20
2019-02-21T03:41:38.853Z,62.70
2019-02-21T03:46:33.451Z,69.57
2019-02-21T03:51:28.038Z,61.07
2019-02-21T03:56:22.734Z,61.87
2019-02-21T04:01:17.504Z,57.77
2019-02-21T04:06:12.140Z,58.20
2019-02-21T04:11:06.784Z,73.20
2019-02-21T04:16:01.452Z,86.10
2019-02-21T04:20:56.122Z,76.10
2019-02-21T04:25:50.712Z,66.53
2019-02-21T04:30:45.292Z,130.70
2019-02-21T04:35:39.939Z,115.53
2019-02-21T04:40:34.567Z,119.17
2019-02-21T04:45:29.147Z,101.20
2019-02-21T04:50:23.739Z,70.47
2019-02-21T04:55:18.324Z,118.53
2019-02-21T05:00:14.026Z,75.90
2019-02-21T05:05:08.690Z,86.17
2019-02-21T05:10:03.283Z,299.97
2019-02-21T05:14:57.875Z,237.67
2019-02-21T05:19:52.475Z,264.97
2019-02-21T05:24:47.065Z,287.77
2019-02-21T05:29:41.666Z,133.40
2019-02-21T05:34:52.724Z,271.13
2019-02-21T05:39:54.479Z,166.83
2019-02-21T05:44:50.819Z,241.20
2019-02-21T05:49:54.382Z,126.20
2019-02-21T05:54:50.633Z,110.57
2019-02-21T05:59:50.472Z,235.47
2019-02-21T06:04:46.698Z,83.37
2019-02-21T06:09:45.589Z,79.50
2019-02-21T06:14:47.594Z,99.13
2019-02-21T06:19:52.532Z,70.53
2019-02-21T06:25:04.815Z,185.43
2019-02-21T06:30:01.051Z,100.63
2019-02-21T06:35:02.787Z,91.07
2019-02-21T06:39:57.713Z,102.17
2019-02-21T06:44:52.318Z,122.53
2019-02-21T06:49:46.963Z,77.07
2019-02-21T06:54:41.569Z,72.10
2019-02-21T06:59:43.230Z,72.60
2019-02-21T07:04:33.367Z,75.43
2019-02-21T07:09:28.288Z,58.67
2019-02-21T07:14:22.884Z,59.67
2019-02-21T07:19:17.473Z,53.93
2019-02-21T07:24:12.066Z,54.93
2019-02-21T07:29:06.690Z,54.10
2019-02-21T07:34:01.773Z,52.33
2019-02-21T07:39:13.637Z,53.00
2019-02-21T07:43:53.086Z,51.70
2019-02-21T07:48:47.649Z,51.97
2019-02-21T07:53:42.648Z,55.93
2019-02-21T07:58:39.548Z,48.70
2019-02-21T08:03:43.789Z,54.33
2019-02-21T08:08:32.348Z,51.00
2019-02-21T08:13:26.567Z,48.03
2019-02-21T08:18:21.251Z,44.47
2019-02-21T08:23:15.843Z,42.17
2019-02-21T08:28:11.303Z,36.70
2019-02-21T08:33:11.178Z,38.17
2019-02-21T08:38:06.350Z,32.63
2019-02-21T08:43:03.853Z,35.53
2019-02-21T08:47:57.499Z,41.13
2019-02-21T08:53:03.177Z,36.47
2019-02-21T08:58:02.529Z,39.40
2019-02-21T09:02:57.189Z,34.30
2019-02-21T09:07:51.875Z,37.50
2019-02-21T09:12:48.527Z,33.60
2019-02-21T09:17:42.899Z,34.63
2019-02-21T09:22:52.430Z,38.57
2019-02-21T09:27:51.475Z,41.73
2019-02-21T09:32:46.500Z,37.80
2019-02-21T09:38:00.830Z,38.73
2019-02-21T09:42:53.702Z,37.80
2019-02-21T09:47:49.098Z,43.53
2019-02-21T09:52:43.829Z,40.17
2019-02-21T09:57:38.532Z,43.67
2019-02-21T10:02:34.183Z,45.00
2019-02-21T10:07:29.727Z,47.30
2019-02-21T10:12:24.415Z,48.03
2019-02-21T10:17:19.095Z,47.63
2019-02-21T10:22:13.670Z,50.43
2019-02-21T10:27:08.280Z,53.43
2019-02-21T10:32:02.964Z,52.43
2019-02-21T10:37:00.543Z,57.10
2019-02-21T10:42:01.624Z,49.77
2019-02-21T10:47:02.158Z,46.70
2019-02-21T10:51:57.076Z,39.93
2019-02-21T10:56:51.774Z,40.70
2019-02-21T11:01:47.275Z,36.00
2019-02-21T11:06:42.052Z,41.30
2019-02-21T11:11:37.884Z,40.17
2019-02-21T11:16:32.590Z,40.10
2019-02-21T11:21:31.450Z,27.13
2019-02-21T11:26:26.599Z,30.73
2019-02-21T11:31:27.812Z,34.53
2019-02-21T11:36:29.019Z,30.93
2019-02-21T11:41:24.149Z,38.93
2019-02-21T11:46:18.871Z,38.00
2019-02-21T11:51:13.624Z,36.53
2019-02-21T11:56:15.783Z,45.57
2019-02-21T12:01:11.603Z,47.33
2019-02-21T12:06:06.345Z,36.07
2019-02-21T12:11:01.252Z,34.77
2019-02-21T12:15:55.929Z,43.60
2019-02-21T12:20:50.557Z,37.27
2019-02-21T12:25:45.222Z,40.00
2019-02-21T12:30:45.523Z,46.83
2019-02-21T12:35:40.486Z,41.57
2019-02-21T12:40:35.440Z,38.30
2019-02-21T12:45:30.241Z,40.17
2019-02-21T12:50:24.837Z,57.30
2019-02-21T12:55:27.952Z,43.07
2019-02-21T13:00:21.469Z,53.40
2019-02-21T13:05:16.287Z,40.80
2019-02-21T13:10:17.362Z,40.93
2019-02-21T13:15:15.497Z,41.53
2019-02-21T13:20:13.581Z,40.90
2019-02-21T13:25:12.410Z,42.43
2019-02-21T13:30:14.283Z,42.43
2019-02-21T13:35:10.604Z,41.50
2019-02-21T13:40:14.542Z,39.43
2019-02-21T13:45:12.053Z,36.77
2019-02-21T13:50:12.470Z,49.77
2019-02-21T13:55:08.223Z,48.30
2019-02-21T14:00:03.818Z,39.07
2019-02-21T14:04:58.987Z,37.97
2019-02-21T14:09:53.714Z,41.43
2019-02-21T14:14:48.298Z,39.47
2019-02-21T14:19:42.893Z,39.87
2019-02-21T14:24:44.822Z,34.83
2019-02-21T14:29:39.842Z,34.70
2019-02-21T14:34:34.403Z,35.80
2019-02-21T14:39:29.978Z,33.23
2019-02-21T14:44:25.350Z,41.23
2019-02-21T14:49:20.289Z,36.70
2019-02-21T14:54:16.487Z,39.87
2019-02-21T14:59:13.767Z,48.87
2019-02-21T15:04:08.422Z,43.83
2019-02-21T15:09:03.042Z,37.73
2019-02-21T15:13:57.751Z,31.23
2019-02-21T15:18:55.123Z,34.40
2019-02-21T15:23:48.773Z,29.97
2019-02-21T15:28:43.389Z,38.70
2019-02-21T15:33:38.071Z,36.73
2019-02-21T15:38:34.626Z,41.30
2019-02-21T15:43:29.563Z,41.10
2019-02-21T15:48:24.351Z,32.10
2019-02-21T15:53:19.073Z,30.03
2019-02-21T15:58:24.542Z,32.07
2019-02-21T16:03:19.144Z,30.60
2019-02-21T16:08:13.759Z,25.73
2019-02-21T16:13:08.568Z,24.90
2019-02-21T16:18:03.435Z,34.67
2019-02-21T16:22:58.264Z,32.37
2019-02-21T16:27:55.214Z,22.30
2019-02-21T16:32:49.410Z,27.57
2019-02-21T16:37:44.102Z,27.60
2019-02-21T16:42:38.693Z,32.97
2019-02-21T16:47:33.293Z,26.70
2019-02-21T16:52:28.000Z,24.87
2019-02-21T16:57:22.622Z,28.33
2019-02-21T17:02:17.201Z,28.10
2019-02-21T17:07:18.493Z,32.23
2019-02-21T17:12:08.124Z,30.50
2019-02-21T17:17:02.734Z,25.30
2019-02-21T17:21:57.303Z,25.37
2019-02-21T17:26:51.973Z,28.33
2019-02-21T17:31:46.690Z,28.00
2019-02-21T17:36:41.307Z,30.83
2019-02-21T17:41:35.896Z,29.03
2019-02-21T17:46:30.530Z,26.80
2019-02-21T17:51:25.167Z,33.37
2019-02-21T17:56:19.760Z,32.47
2019-02-21T18:01:14.350Z,28.73
2019-02-21T18:06:08.943Z,29.53
2019-02-21T18:11:06.353Z,29.00
2019-02-21T18:16:00.939Z,27.53
2019-02-21T18:20:55.526Z,27.70
2019-02-21T18:25:57.473Z,28.03
2019-02-21T18:30:52.077Z,27.40
2019-02-21T18:35:46.966Z,30.67
2019-02-21T18:40:41.619Z,33.07
2019-02-21T18:45:36.285Z,35.23
2019-02-21T18:50:38.319Z,35.13
2019-02-21T18:55:27.316Z,34.57
2019-02-21T19:00:24.770Z,24.10
2019-02-21T19:05:19.673Z,31.77
2019-02-21T19:10:19.630Z,25.47
2019-02-21T19:15:16.031Z,22.00
2019-02-21T19:20:14.144Z,23.47
2019-02-21T19:25:11.245Z,30.23
2019-02-21T19:30:22.355Z,23.63
2019-02-21T19:35:17.894Z,24.67
2019-02-21T19:40:12.746Z,25.93
2019-02-21T19:45:09.648Z,32.67
2019-02-21T19:50:06.884Z,28.63
2019-02-21T19:55:05.498Z,29.90
2019-02-21T20:00:00.360Z,27.60
2019-02-21T20:04:55.327Z,30.87
2019-02-21T20:09:50.043Z,30.47
2019-02-21T20:14:44.641Z,27.77
2019-02-21T20:19:39.311Z,24.67
2019-02-21T20:24:33.896Z,23.10
2019-02-21T20:29:28.568Z,29.23
2019-02-21T20:34:23.170Z,30.60
2019-02-21T20:39:17.845Z,26.60
2019-02-21T20:44:12.439Z,21.97
2019-02-21T20:49:07.135Z,25.17
2019-02-21T20:54:01.695Z,22.33
2019-02-21T20:58:56.354Z,20.93
2019-02-21T21:03:50.942Z,29.73
2019-02-21T21:08:46.728Z,37.00
2019-02-21T21:13:43.964Z,35.43
2019-02-21T21:18:37.777Z,28.93
2019-02-21T21:23:32.368Z,32.13
2019-02-21T21:28:26.958Z,35.13
2019-02-21T21:33:21.536Z,32.53
2019-02-21T21:38:23.762Z,28.97
2019-02-21T21:43:12.482Z,30.47
2019-02-21T21:48:07.136Z,27.77
2019-02-21T21:53:01.721Z,31.43
2019-02-21T21:57:56.320Z,33.50
2019-02-21T22:02:51.013Z,27.37
2019-02-21T22:07:45.583Z,30.53
2019-02-21T22:12:40.174Z,33.97
2019-02-21T22:17:34.776Z,32.10
2019-02-21T22:22:29.433Z,32.93
2019-02-21T22:27:24.831Z,32.33
2019-02-21T22:32:19.815Z,33.73
2019-02-21T22:37:14.385Z,33.47
2019-02-21T22:42:08.977Z,41.33
2019-02-21T22:47:03.558Z,30.00
2019-02-21T22:51:58.180Z,29.57
2019-02-21T22:56:52.809Z,29.13
2019-02-21T23:01:47.623Z,30.03
2019-02-21T23:06:58.411Z,33.33
2019-02-21T23:11:53.047Z,41.43
2019-02-21T23:16:48.177Z,35.90
2019-02-21T23:21:42.956Z,38.63
2019-02-21T23:26:37.612Z,32.40
2019-02-21T23:31:32.185Z,36.60
2019-02-21T23:36:26.776Z,38.40
2019-02-21T23:41:21.488Z,31.17
2019-02-21T23:46:16.117Z,30.20
2019-02-21T23:51:10.702Z,29.43
2019-02-21T23:56:05.355Z,29.07
